< < Back
Terminal Aerodrome Forecast


Current Version              Previous Versions:   1  2  3  4  5  6  7  8  9  

Terminal Aerodrome Forecast

699
FTUS42 KMLB 201700 RRA
TAFMCO
TAF
KMCO 201743Z 2018/2118 15005KT P6SM SCT045
     FM210100 VRB02KT P6SM BKN250
     FM211400 28004KT P6SM SCT030 BKN150 OVC250=

Latest METAR

161
SAUS70 KWBC 201800 RRG
MTRMCO
METAR KMCO 201753Z 00000KT 10SM SCT045 29/16 A3000 RMK AO2 SLP156
T02890161 10294 20189 58023


USA.gov is the U.S. government's official web portal to all federal, state and local government web resources and services.